Time;durP1;ratioP1;P1;durP2;ratioP2;P2;SDS_P1;SDS_P2;PMS_P1;PMS_P2;Temp;Humidity;BMP_temperature;BMP_pressure;BME280_temperature;BME280_humidity;BME280_pressure;Samples;Min_cycle;Max_cycle;Signal;HPM_P1;HPM_P2
2023/03/05 00:01:53;;;;;;;;;;;;;;;;;;5014637;28;19914;-27
2023/03/05 00:04:20;;;;;;;;;;;;;;;;;;5013680;28;19933;-28
2023/03/05 00:06:46;;;;;;;;;;;;;;;;;;5014374;28;19953;-28
2023/03/05 00:09:12;;;;;;;;;;;;;;;;;;5014586;28;19932;-24
2023/03/05 00:11:38;;;;;;;;;;;;;;;;;;5014564;28;19918;-29
2023/03/05 00:14:05;;;;;;;;;;;;;;;;;;5014391;28;19917;-29
2023/03/05 00:16:31;;;;;;;;;;;;;;;;;;5014681;28;19909;-30
2023/03/05 00:18:57;;;;;;;;;;;;;;;;;;5014390;28;20384;-33
2023/03/05 00:21:23;;;;;;;;;;;;;;;;;;5014509;28;19909;-30
2023/03/05 00:23:49;;;;;;;;;;;;;;;;;;5014499;28;20268;-27
2023/03/05 00:26:15;;;;;;;;;;;;;;;;;;5014754;28;19909;-27
2023/03/05 00:28:41;;;;;;;;;;;;;;;;;;5018185;28;20083;-24
2023/03/05 00:31:07;;;;;;;;;;;;;;;;;;5018294;28;19918;-31
2023/03/05 00:33:33;;;;;;;;;;;;;;;;;;5018141;28;20263;-28
2023/03/05 00:36:01;;;;;;;;;;;;;;;;;;5017157;28;19909;-30
2023/03/05 00:38:27;;;;;;;;;;;;;;;;;;5018273;28;20310;-25
2023/03/05 00:40:53;;;;;;;;;;;;;;;;;;5018288;28;19937;-28
2023/03/05 00:43:19;;;;;;;;;;;;;;;;;;5018191;28;20337;-30
2023/03/05 00:45:45;;;;;;;;;;;;;;;;;;5017931;28;19955;-27
2023/03/05 00:48:10;;;;;;;;;;;;;;;;;;5017883;28;19936;-30
2023/03/05 00:50:36;;;;;;;;;;;;;;;;;;5017823;28;19917;-28
2023/03/05 00:53:02;;;;;;;;;;;;;;;;;;5017729;28;19913;-29
2023/03/05 00:55:28;;;;;;;;;;;;;;;;;;5016819;28;19996;-27
2023/03/05 00:57:54;;;;;;;;;;;;;;;;;;5017694;28;19972;-29
2023/03/05 01:00:20;;;;;;;;;;;;;;;;;;5017960;28;20249;-30
2023/03/05 01:02:46;;;;;;;;;;;;;;;;;;5017532;28;20021;-31
2023/03/05 01:05:12;;;;;;;;;;;;;;;;;;5017608;28;19909;-26
2023/03/05 01:07:38;;;;;;;;;;;;;;;;;;5017281;28;19933;-27
2023/03/05 01:10:04;;;;;;;;;;;;;;;;;;5018414;28;19909;-30
2023/03/05 01:12:30;;;;;;;;;;;;;;;;;;5017397;28;19909;-27
2023/03/05 01:14:56;;;;;;;;;;;;;;;;;;5017428;28;19916;-27
2023/03/05 01:17:22;;;;;;;;;;;;;;;;;;5017333;28;19975;-26
2023/03/05 01:19:48;;;;;;;;;;;;;;;;;;5017347;28;20011;-29
2023/03/05 01:22:14;;;;;;;;;;;;;;;;;;5017188;28;19917;-28
2023/03/05 01:24:40;;;;;;;;;;;;;;;;;;5017271;28;19916;-28
2023/03/05 01:27:06;;;;;;;;;;;;;;;;;;5017394;28;19909;-31
2023/03/05 01:29:31;;;;;;;;;;;;;;;;;;5017151;28;20307;-30
2023/03/05 01:31:57;;;;;;;;;;;;;;;;;;5016000;28;20328;-27
2023/03/05 01:34:23;;;;;;;;;;;;;;;;;;5017299;28;20016;-28
2023/03/05 01:36:49;;;;;;;;;;;;;;;;;;5016945;28;20080;-27
2023/03/05 01:39:15;;;;;;;;;;;;;;;;;;5015854;28;19920;-28
2023/03/05 01:41:41;;;;;;;;;;;;;;;;;;5016925;28;19910;-31
2023/03/05 01:44:07;;;;;;;;;;;;;;;;;;5017059;28;20036;-28
2023/03/05 01:46:33;;;;;;;;;;;;;;;;;;5016838;28;20000;-28
2023/03/05 01:48:59;;;;;;;;;;;;;;;;;;5016753;28;19917;-27
2023/03/05 01:51:25;;;;;;;;;;;;;;;;;;5016973;28;19909;-28
2023/03/05 01:53:51;;;;;;;;;;;;;;;;;;5016644;28;19922;-30
2023/03/05 01:56:17;;;;;;;;;;;;;;;;;;5016631;28;19929;-27
2023/03/05 01:58:43;;;;;;;;;;;;;;;;;;5016423;28;19958;-29
2023/03/05 02:01:09;;;;;;;;;;;;;;;;;;5016502;28;19932;-30
2023/03/05 02:03:35;;;;;;;;;;;;;;;;;;5016452;28;20012;-32
2023/03/05 02:06:01;;;;;;;;;;;;;;;;;;5016458;28;19909;-32
2023/03/05 02:08:27;;;;;;;;;;;;;;;;;;5016218;28;19921;-28
2023/03/05 02:10:54;;;;;;;;;;;;;;;;;;5015398;28;19910;-25
2023/03/05 02:13:21;;;;;;;;;;;;;;;;;;5016271;28;19909;-28
2023/03/05 02:15:48;;;;;;;;;;;;;;;;;;5016606;28;20284;-27
2023/03/05 02:18:14;;;;;;;;;;;;;;;;;;5016150;28;19913;-25
2023/03/05 02:20:40;;;;;;;;;;;;;;;;;;5016157;28;20046;-26
2023/03/05 02:23:06;;;;;;;;;;;;;;;;;;5016218;28;20333;-28
2023/03/05 02:25:32;;;;;;;;;;;;;;;;;;5016141;28;19909;-30
2023/03/05 02:27:58;;;;;;;;;;;;;;;;;;5016346;28;20012;-28
2023/03/05 02:30:24;;;;;;;;;;;;;;;;;;5016011;28;19920;-25
2023/03/05 02:32:50;;;;;;;;;;;;;;;;;;5016154;28;19967;-30
2023/03/05 02:35:16;;;;;;;;;;;;;;;;;;5015910;28;19910;-28
2023/03/05 02:37:42;;;;;;;;;;;;;;;;;;5016044;28;20387;-29
2023/03/05 02:40:08;;;;;;;;;;;;;;;;;;5015812;28;20252;-31
2023/03/05 02:42:34;;;;;;;;;;;;;;;;;;5015656;28;19920;-27
2023/03/05 02:45:00;;;;;;;;;;;;;;;;;;5015672;28;19910;-24
2023/03/05 02:47:26;;;;;;;;;;;;;;;;;;5015747;28;20016;-26
2023/03/05 02:49:52;;;;;;;;;;;;;;;;;;5015376;28;19936;-25
2023/03/05 02:52:18;;;;;;;;;;;;;;;;;;5015535;28;19920;-24
2023/03/05 02:54:44;;;;;;;;;;;;;;;;;;5015595;28;20304;-26
2023/03/05 02:57:09;;;;;;;;;;;;;;;;;;5015670;28;19913;-26
2023/03/05 02:59:35;;;;;;;;;;;;;;;;;;5015718;28;19916;-28
2023/03/05 03:02:01;;;;;;;;;;;;;;;;;;5015439;28;20264;-25
2023/03/05 03:04:27;;;;;;;;;;;;;;;;;;5015436;28;20036;-26
2023/03/05 03:06:53;;;;;;;;;;;;;;;;;;5015192;28;20273;-26
2023/03/05 03:09:19;;;;;;;;;;;;;;;;;;5015306;28;19909;-24
2023/03/05 03:11:45;;;;;;;;;;;;;;;;;;5014322;28;20326;-25
2023/03/05 03:14:11;;;;;;;;;;;;;;;;;;5015163;28;19917;-28
2023/03/05 03:16:37;;;;;;;;;;;;;;;;;;5015108;28;20139;-30
2023/03/05 03:19:04;;;;;;;;;;;;;;;;;;5015476;28;19936;-29
2023/03/05 03:21:30;;;;;;;;;;;;;;;;;;5015152;28;20311;-28
2023/03/05 03:23:56;;;;;;;;;;;;;;;;;;5015043;28;19909;-31
2023/03/05 03:26:22;;;;;;;;;;;;;;;;;;5015027;28;20329;-27
2023/03/05 03:28:48;;;;;;;;;;;;;;;;;;5014059;28;19967;-31
2023/03/05 03:31:14;;;;;;;;;;;;;;;;;;5015034;28;19909;-27
2023/03/05 03:33:40;;;;;;;;;;;;;;;;;;5014908;28;19910;-26
2023/03/05 03:36:06;;;;;;;;;;;;;;;;;;5014948;28;19924;-29
2023/03/05 03:38:32;;;;;;;;;;;;;;;;;;5015103;28;19990;-25
2023/03/05 03:40:58;;;;;;;;;;;;;;;;;;5014941;28;20388;-31
2023/03/05 03:43:24;;;;;;;;;;;;;;;;;;5014785;28;19910;-31
2023/03/05 03:45:49;;;;;;;;;;;;;;;;;;5013846;28;19910;-25
2023/03/05 03:48:15;;;;;;;;;;;;;;;;;;5014812;28;19909;-25
2023/03/05 03:50:41;;;;;;;;;;;;;;;;;;5014732;28;20004;-25
2023/03/05 03:53:07;;;;;;;;;;;;;;;;;;5014686;28;19939;-29
2023/03/05 03:55:33;;;;;;;;;;;;;;;;;;5014740;28;19909;-28
2023/03/05 03:57:59;;;;;;;;;;;;;;;;;;5014843;28;19924;-26
2023/03/05 04:00:25;;;;;;;;;;;;;;;;;;5013638;28;19910;-28
2023/03/05 04:02:51;;;;;;;;;;;;;;;;;;5016941;28;19924;-27
2023/03/05 04:05:17;;;;;;;;;;;;;;;;;;5018719;28;19944;-28
2023/03/05 04:07:44;;;;;;;;;;;;;;;;;;5018455;28;19922;-30
2023/03/05 04:10:12;;;;;;;;;;;;;;;;;;5017923;28;20186;-29
2023/03/05 04:12:38;;;;;;;;;;;;;;;;;;5018540;28;20000;-30
2023/03/05 04:15:06;;;;;;;;;;;;;;;;;;5018564;28;20364;-25
2023/03/05 04:17:32;;;;;;;;;;;;;;;;;;5018465;28;19972;-26
2023/03/05 04:19:58;;;;;;;;;;;;;;;;;;5018414;28;19914;-28
2023/03/05 04:22:24;;;;;;;;;;;;;;;;;;5018356;28;19964;-27
2023/03/05 04:24:50;;;;;;;;;;;;;;;;;;5018351;28;19916;-29
2023/03/05 04:27:16;;;;;;;;;;;;;;;;;;5018562;28;19970;-28
2023/03/05 04:29:42;;;;;;;;;;;;;;;;;;5018242;28;19913;-27
2023/03/05 04:32:08;;;;;;;;;;;;;;;;;;5018464;28;19917;-25
2023/03/05 04:34:34;;;;;;;;;;;;;;;;;;5018183;28;20348;-34
2023/03/05 04:37:00;;;;;;;;;;;;;;;;;;5018043;28;20255;-29
2023/03/05 04:39:26;;;;;;;;;;;;;;;;;;5018342;28;19910;-26
2023/03/05 04:41:52;;;;;;;;;;;;;;;;;;5017951;28;20282;-28
2023/03/05 04:44:18;;;;;;;;;;;;;;;;;;5018015;28;19917;-28
2023/03/05 04:46:44;;;;;;;;;;;;;;;;;;5018002;28;20356;-24
2023/03/05 04:49:10;;;;;;;;;;;;;;;;;;5017914;28;19909;-28
2023/03/05 04:51:36;;;;;;;;;;;;;;;;;;5018185;28;19910;-24
2023/03/05 04:54:02;;;;;;;;;;;;;;;;;;5017790;28;19988;-29
2023/03/05 04:56:27;;;;;;;;;;;;;;;;;;5018025;28;19914;-29
2023/03/05 04:58:53;;;;;;;;;;;;;;;;;;5017736;28;19909;-30
2023/03/05 05:01:19;;;;;;;;;;;;;;;;;;5016697;28;19909;-27
2023/03/05 05:03:45;;;;;;;;;;;;;;;;;;5017651;28;19910;-29
2023/03/05 05:06:11;;;;;;;;;;;;;;;;;;5017612;28;19996;-25
2023/03/05 05:08:37;;;;;;;;;;;;;;;;;;5017480;28;19921;-30
2023/03/05 05:11:03;;;;;;;;;;;;;;;;;;5018186;28;19956;-30
2023/03/05 05:13:29;;;;;;;;;;;;;;;;;;5017452;28;20028;-31
2023/03/05 05:15:55;;;;;;;;;;;;;;;;;;5017351;28;19909;-24
2023/03/05 05:18:21;;;;;;;;;;;;;;;;;;5017492;28;19923;-31
2023/03/05 05:20:47;;;;;;;;;;;;;;;;;;5017353;28;19960;-27
2023/03/05 05:23:13;;;;;;;;;;;;;;;;;;5017271;28;19910;-27
2023/03/05 05:25:39;;;;;;;;;;;;;;;;;;5017271;28;20297;-33
2023/03/05 05:28:05;;;;;;;;;;;;;;;;;;5016243;28;19909;-26
2023/03/05 05:30:31;;;;;;;;;;;;;;;;;;5016201;28;20341;-28
2023/03/05 05:32:57;;;;;;;;;;;;;;;;;;5017067;28;19910;-25
2023/03/05 05:35:23;;;;;;;;;;;;;;;;;;5016125;28;19910;-25
2023/03/05 05:37:49;;;;;;;;;;;;;;;;;;5016949;28;19913;-28
2023/03/05 05:40:15;;;;;;;;;;;;;;;;;;5016926;28;19909;-26
2023/03/05 05:42:41;;;;;;;;;;;;;;;;;;5017127;28;19910;-26
2023/03/05 05:45:07;;;;;;;;;;;;;;;;;;5016821;28;19909;-25
2023/03/05 05:47:33;;;;;;;;;;;;;;;;;;5015912;28;19945;-29
2023/03/05 05:49:59;;;;;;;;;;;;;;;;;;5016845;28;19948;-31
2023/03/05 05:52:25;;;;;;;;;;;;;;;;;;5016721;28;19916;-29
2023/03/05 05:54:50;;;;;;;;;;;;;;;;;;5016734;28;20275;-26
2023/03/05 05:57:16;;;;;;;;;;;;;;;;;;5016554;28;19913;-27
2023/03/05 05:59:42;;;;;;;;;;;;;;;;;;5016610;28;19959;-29
2023/03/05 06:02:09;;;;;;;;;;;;;;;;;;5016515;28;19944;-27
2023/03/05 06:04:35;;;;;;;;;;;;;;;;;;5016790;28;19981;-25
2023/03/05 06:07:02;;;;;;;;;;;;;;;;;;5016314;28;19998;-25
2023/03/05 06:09:28;;;;;;;;;;;;;;;;;;5016380;28;19929;-24
2023/03/05 06:11:54;;;;;;;;;;;;;;;;;;5016349;28;19921;-33
2023/03/05 06:14:20;;;;;;;;;;;;;;;;;;5016346;28;20252;-28
2023/03/05 06:16:46;;;;;;;;;;;;;;;;;;5016467;28;19917;-27
2023/03/05 06:19:12;;;;;;;;;;;;;;;;;;5016292;28;19909;-29
2023/03/05 06:21:38;;;;;;;;;;;;;;;;;;5016188;28;19921;-25
2023/03/05 06:24:04;;;;;;;;;;;;;;;;;;5015932;28;19921;-30
2023/03/05 06:26:30;;;;;;;;;;;;;;;;;;5015600;28;19910;-29
2023/03/05 06:28:57;;;;;;;;;;;;;;;;;;5016042;28;19916;-26
2023/03/05 06:31:26;;;;;;;;;;;;;;;;;;5016255;28;20225;-26
2023/03/05 06:33:52;;;;;;;;;;;;;;;;;;5015943;28;19910;-28
2023/03/05 06:36:18;;;;;;;;;;;;;;;;;;5016192;28;19925;-26
2023/03/05 06:38:44;;;;;;;;;;;;;;;;;;5015816;28;19913;-28
2023/03/05 06:41:10;;;;;;;;;;;;;;;;;;5015880;28;19920;-27
2023/03/05 06:43:37;;;;;;;;;;;;;;;;;;5015797;28;20228;-28
2023/03/05 06:46:03;;;;;;;;;;;;;;;;;;5015795;28;19909;-30
2023/03/05 06:48:29;;;;;;;;;;;;;;;;;;5016026;28;19967;-28
2023/03/05 06:50:55;;;;;;;;;;;;;;;;;;5015634;28;20002;-29
2023/03/05 06:53:21;;;;;;;;;;;;;;;;;;5015855;28;19909;-27
2023/03/05 06:55:47;;;;;;;;;;;;;;;;;;5015542;28;19909;-31
2023/03/05 06:58:13;;;;;;;;;;;;;;;;;;5015506;28;19968;-32
2023/03/05 07:00:39;;;;;;;;;;;;;;;;;;5015529;28;19968;-28
2023/03/05 07:03:05;;;;;;;;;;;;;;;;;;5015681;28;19910;-31
2023/03/05 07:05:31;;;;;;;;;;;;;;;;;;5015373;28;19920;-32
2023/03/05 07:07:57;;;;;;;;;;;;;;;;;;5015272;28;19922;-31
2023/03/05 07:10:23;;;;;;;;;;;;;;;;;;5015320;28;20304;-28
2023/03/05 07:12:48;;;;;;;;;;;;;;;;;;5015474;28;19909;-28
2023/03/05 07:15:14;;;;;;;;;;;;;;;;;;5015226;28;19909;-33
2023/03/05 07:17:40;;;;;;;;;;;;;;;;;;5015145;28;20008;-31
2023/03/05 07:20:06;;;;;;;;;;;;;;;;;;5015218;28;19956;-29
2023/03/05 07:22:32;;;;;;;;;;;;;;;;;;5015069;28;19916;-27
2023/03/05 07:24:58;;;;;;;;;;;;;;;;;;5015129;28;20080;-28
2023/03/05 07:27:24;;;;;;;;;;;;;;;;;;5015382;28;19910;-34
2023/03/05 07:29:50;;;;;;;;;;;;;;;;;;5015078;28;19909;-27
2023/03/05 07:32:16;;;;;;;;;;;;;;;;;;5014980;28;19920;-28
2023/03/05 07:34:42;;;;;;;;;;;;;;;;;;5014979;28;19967;-27
2023/03/05 07:37:08;;;;;;;;;;;;;;;;;;5013974;28;19917;-28
2023/03/05 07:39:34;;;;;;;;;;;;;;;;;;5015162;28;19910;-27
2023/03/05 07:42:00;;;;;;;;;;;;;;;;;;5015120;28;19973;-27
2023/03/05 07:44:26;;;;;;;;;;;;;;;;;;5014911;28;19916;-29
2023/03/05 07:46:52;;;;;;;;;;;;;;;;;;5015086;28;19915;-30
2023/03/05 07:49:18;;;;;;;;;;;;;;;;;;5014859;28;19914;-30
2023/03/05 07:51:43;;;;;;;;;;;;;;;;;;5015053;28;19920;-29
2023/03/05 07:54:09;;;;;;;;;;;;;;;;;;5014667;28;19909;-24
2023/03/05 07:56:35;;;;;;;;;;;;;;;;;;5014725;28;20029;-26
2023/03/05 07:59:01;;;;;;;;;;;;;;;;;;5014814;28;19917;-25
2023/03/05 08:01:27;;;;;;;;;;;;;;;;;;5014752;28;19932;-24
2023/03/05 08:03:53;;;;;;;;;;;;;;;;;;5014612;28;19914;-28
2023/03/05 08:06:19;;;;;;;;;;;;;;;;;;5014417;28;19909;-27
2023/03/05 08:08:45;;;;;;;;;;;;;;;;;;5014994;28;19921;-28
2023/03/05 08:11:11;;;;;;;;;;;;;;;;;;5013601;28;20260;-28
2023/03/05 08:13:37;;;;;;;;;;;;;;;;;;5014772;28;19937;-30
2023/03/05 08:16:03;;;;;;;;;;;;;;;;;;5014551;28;20307;-34
2023/03/05 08:18:29;;;;;;;;;;;;;;;;;;5014461;28;19913;-27
2023/03/05 08:20:55;;;;;;;;;;;;;;;;;;5014484;28;19936;-24
2023/03/05 08:23:21;;;;;;;;;;;;;;;;;;5014632;28;20313;-25
2023/03/05 08:25:47;;;;;;;;;;;;;;;;;;5014456;28;19991;-27
2023/03/05 08:28:13;;;;;;;;;;;;;;;;;;5014517;28;20000;-27
2023/03/05 08:30:39;;;;;;;;;;;;;;;;;;5014401;28;20317;-26
2023/03/05 08:33:05;;;;;;;;;;;;;;;;;;5014347;28;19910;-25
2023/03/05 08:35:31;;;;;;;;;;;;;;;;;;5014385;28;20009;-26
2023/03/05 08:37:56;;;;;;;;;;;;;;;;;;5014303;28;19992;-28
2023/03/05 08:40:22;;;;;;;;;;;;;;;;;;5014685;28;19964;-30
2023/03/05 08:42:50;;;;;;;;;;;;;;;;;;5014596;28;20027;-30
2023/03/05 08:45:16;;;;;;;;;;;;;;;;;;5014658;28;20253;-31
2023/03/05 08:47:42;;;;;;;;;;;;;;;;;;5014895;28;19910;-28
2023/03/05 08:50:08;;;;;;;;;;;;;;;;;;5018207;28;20337;-30
2023/03/05 08:52:34;;;;;;;;;;;;;;;;;;5018123;28;20252;-32
2023/03/05 08:55:00;;;;;;;;;;;;;;;;;;5017850;28;19909;-24
2023/03/05 08:57:26;;;;;;;;;;;;;;;;;;5017945;28;20321;-29
2023/03/05 08:59:52;;;;;;;;;;;;;;;;;;5017698;28;19916;-26
2023/03/05 09:02:18;;;;;;;;;;;;;;;;;;5017865;28;19909;-27
2023/03/05 09:04:44;;;;;;;;;;;;;;;;;;5017730;28;19920;-29
2023/03/05 09:07:10;;;;;;;;;;;;;;;;;;5017422;28;19961;-27
2023/03/05 09:09:36;;;;;;;;;;;;;;;;;;5017793;28;19917;-25
2023/03/05 09:12:02;;;;;;;;;;;;;;;;;;5017671;28;19975;-25
2023/03/05 09:14:28;;;;;;;;;;;;;;;;;;5017482;28;19918;-25
2023/03/05 09:16:54;;;;;;;;;;;;;;;;;;5017394;28;19918;-26
2023/03/05 09:19:19;;;;;;;;;;;;;;;;;;5017419;28;19921;-25
2023/03/05 09:21:45;;;;;;;;;;;;;;;;;;5017379;28;19910;-27
2023/03/05 09:24:11;;;;;;;;;;;;;;;;;;5017242;28;19973;-27
2023/03/05 09:26:37;;;;;;;;;;;;;;;;;;5017272;28;19909;-26
2023/03/05 09:29:06;;;;;;;;;;;;;;;;;;5017499;28;19910;-25
2023/03/05 09:31:32;;;;;;;;;;;;;;;;;;5017225;28;19920;-28
2023/03/05 09:33:58;;;;;;;;;;;;;;;;;;5017071;28;19914;-25
2023/03/05 09:36:24;;;;;;;;;;;;;;;;;;5017163;28;19917;-25
2023/03/05 09:38:50;;;;;;;;;;;;;;;;;;5016996;28;19918;-26
2023/03/05 09:41:16;;;;;;;;;;;;;;;;;;5016999;28;19910;-26
2023/03/05 09:43:41;;;;;;;;;;;;;;;;;;5016863;28;19944;-30
2023/03/05 09:46:07;;;;;;;;;;;;;;;;;;5016911;28;20238;-27
2023/03/05 09:48:33;;;;;;;;;;;;;;;;;;5016894;28;19925;-26
2023/03/05 09:51:00;;;;;;;;;;;;;;;;;;5017108;28;19909;-28
2023/03/05 09:53:26;;;;;;;;;;;;;;;;;;5016733;28;20261;-24
2023/03/05 09:55:52;;;;;;;;;;;;;;;;;;5016784;28;19909;-27
2023/03/05 09:58:18;;;;;;;;;;;;;;;;;;5016617;28;20082;-24
2023/03/05 10:00:44;;;;;;;;;;;;;;;;;;5016103;28;19909;-26
2023/03/05 10:03:10;;;;;;;;;;;;;;;;;;5016509;28;19980;-26
2023/03/05 10:05:36;;;;;;;;;;;;;;;;;;5016520;28;19920;-28
2023/03/05 10:08:02;;;;;;;;;;;;;;;;;;5016624;28;20013;-25
2023/03/05 10:10:28;;;;;;;;;;;;;;;;;;5016620;28;19961;-28
2023/03/05 10:12:54;;;;;;;;;;;;;;;;;;5015297;28;19914;-30
2023/03/05 10:15:20;;;;;;;;;;;;;;;;;;5016536;28;20000;-25
2023/03/05 10:17:46;;;;;;;;;;;;;;;;;;5016389;28;20349;-29
2023/03/05 10:20:12;;;;;;;;;;;;;;;;;;5016224;28;19967;-29
2023/03/05 10:22:37;;;;;;;;;;;;;;;;;;5016340;28;20113;-26
2023/03/05 10:25:03;;;;;;;;;;;;;;;;;;5016236;28;19920;-27
2023/03/05 10:27:29;;;;;;;;;;;;;;;;;;5016423;28;19920;-26
2023/03/05 10:29:55;;;;;;;;;;;;;;;;;;5016108;28;19914;-26
2023/03/05 10:32:21;;;;;;;;;;;;;;;;;;5016004;28;19917;-26
2023/03/05 10:34:47;;;;;;;;;;;;;;;;;;5016036;28;19910;-30
2023/03/05 10:37:13;;;;;;;;;;;;;;;;;;5015886;28;19925;-30
2023/03/05 10:39:39;;;;;;;;;;;;;;;;;;5015864;28;20064;-27
2023/03/05 10:42:05;;;;;;;;;;;;;;;;;;5014839;28;19967;-29
2023/03/05 10:44:31;;;;;;;;;;;;;;;;;;5015845;28;20403;-27
2023/03/05 10:46:57;;;;;;;;;;;;;;;;;;5016021;28;19909;-32
2023/03/05 10:49:23;;;;;;;;;;;;;;;;;;5015752;28;19949;-26
2023/03/05 10:51:49;;;;;;;;;;;;;;;;;;5015699;28;20352;-25
2023/03/05 10:54:15;;;;;;;;;;;;;;;;;;5015765;28;19909;-31
2023/03/05 10:56:41;;;;;;;;;;;;;;;;;;5015817;28;19955;-28
2023/03/05 10:59:07;;;;;;;;;;;;;;;;;;5015571;28;19990;-27
2023/03/05 11:01:33;;;;;;;;;;;;;;;;;;5015748;28;19914;-26
2023/03/05 11:03:59;;;;;;;;;;;;;;;;;;5015306;28;20221;-24
2023/03/05 11:06:25;;;;;;;;;;;;;;;;;;5015530;28;19966;-27
2023/03/05 11:08:51;;;;;;;;;;;;;;;;;;5015515;28;20011;-28
2023/03/05 11:11:17;;;;;;;;;;;;;;;;;;5015180;28;19972;-28
2023/03/05 11:13:43;;;;;;;;;;;;;;;;;;5015313;28;19920;-28
2023/03/05 11:16:09;;;;;;;;;;;;;;;;;;5015573;28;20004;-28
2023/03/05 11:18:36;;;;;;;;;;;;;;;;;;5015201;28;20022;-26
2023/03/05 11:21:02;;;;;;;;;;;;;;;;;;5015504;28;19921;-25
2023/03/05 11:23:28;;;;;;;;;;;;;;;;;;5015203;28;20280;-32
2023/03/05 11:25:54;;;;;;;;;;;;;;;;;;5015153;28;20382;-27
2023/03/05 11:28:20;;;;;;;;;;;;;;;;;;5015073;28;19909;-28
2023/03/05 11:30:46;;;;;;;;;;;;;;;;;;5015042;28;19920;-27
2023/03/05 11:33:12;;;;;;;;;;;;;;;;;;5015011;28;19909;-26
2023/03/05 11:35:38;;;;;;;;;;;;;;;;;;5015305;28;19933;-25
2023/03/05 11:38:04;;;;;;;;;;;;;;;;;;5014942;28;19913;-28
2023/03/05 11:40:30;;;;;;;;;;;;;;;;;;5014994;28;19910;-32
2023/03/05 11:42:55;;;;;;;;;;;;;;;;;;5014875;28;19909;-27
2023/03/05 11:45:21;;;;;;;;;;;;;;;;;;5015178;28;19920;-27
2023/03/05 11:47:47;;;;;;;;;;;;;;;;;;5014858;28;19910;-29
2023/03/05 11:50:13;;;;;;;;;;;;;;;;;;5015143;28;20265;-30
2023/03/05 11:52:39;;;;;;;;;;;;;;;;;;5014735;28;19933;-31
2023/03/05 11:55:05;;;;;;;;;;;;;;;;;;5014807;28;19909;-33
2023/03/05 11:57:31;;;;;;;;;;;;;;;;;;5014659;28;19913;-28
2023/03/05 11:59:57;;;;;;;;;;;;;;;;;;5014812;28;19910;-27
2023/03/05 12:02:23;;;;;;;;;;;;;;;;;;5013631;28;19910;-26
2023/03/05 12:04:49;;;;;;;;;;;;;;;;;;5014627;28;19909;-26
2023/03/05 12:07:15;;;;;;;;;;;;;;;;;;5014602;28;19933;-31
2023/03/05 12:09:42;;;;;;;;;;;;;;;;;;5014920;28;19918;-32
2023/03/05 12:12:08;;;;;;;;;;;;;;;;;;5013594;28;20296;-29
2023/03/05 12:14:34;;;;;;;;;;;;;;;;;;5014891;28;19910;-29
2023/03/05 12:16:59;;;;;;;;;;;;;;;;;;5014479;28;19988;-28
2023/03/05 12:19:27;;;;;;;;;;;;;;;;;;5014558;28;20352;-30
2023/03/05 12:21:53;;;;;;;;;;;;;;;;;;5013496;28;20309;-31
2023/03/05 12:24:19;;;;;;;;;;;;;;;;;;5017507;28;19951;-28
2023/03/05 12:26:45;;;;;;;;;;;;;;;;;;5018700;28;19910;-31
2023/03/05 12:29:11;;;;;;;;;;;;;;;;;;5018701;28;19993;-28
2023/03/05 12:31:37;;;;;;;;;;;;;;;;;;5018341;28;20348;-32
2023/03/05 12:34:03;;;;;;;;;;;;;;;;;;5018506;28;19920;-32
2023/03/05 12:36:28;;;;;;;;;;;;;;;;;;5018281;28;19913;-26
2023/03/05 12:38:54;;;;;;;;;;;;;;;;;;5017111;28;19913;-28
2023/03/05 12:41:20;;;;;;;;;;;;;;;;;;5018402;28;19917;-34
2023/03/05 12:43:46;;;;;;;;;;;;;;;;;;5018046;28;20424;-30
2023/03/05 12:46:12;;;;;;;;;;;;;;;;;;5018025;28;19918;-31
2023/03/05 12:48:38;;;;;;;;;;;;;;;;;;5017992;28;19923;-32
2023/03/05 12:51:04;;;;;;;;;;;;;;;;;;5018205;28;19910;-27
2023/03/05 12:53:30;;;;;;;;;;;;;;;;;;5017795;28;19917;-32
2023/03/05 12:55:56;;;;;;;;;;;;;;;;;;5017910;28;19992;-29
2023/03/05 12:58:22;;;;;;;;;;;;;;;;;;5017730;28;19975;-27
2023/03/05 13:00:48;;;;;;;;;;;;;;;;;;5017785;28;19922;-31
2023/03/05 13:03:14;;;;;;;;;;;;;;;;;;5017693;28;19910;-25
2023/03/05 13:05:40;;;;;;;;;;;;;;;;;;5017711;28;19920;-28
2023/03/05 13:08:06;;;;;;;;;;;;;;;;;;5017418;28;19961;-27
2023/03/05 13:10:32;;;;;;;;;;;;;;;;;;5017530;28;19967;-27
2023/03/05 13:12:58;;;;;;;;;;;;;;;;;;5017742;28;19914;-26
2023/03/05 13:15:24;;;;;;;;;;;;;;;;;;5017776;28;19967;-31
2023/03/05 13:17:50;;;;;;;;;;;;;;;;;;5017473;28;19913;-27
2023/03/05 13:20:16;;;;;;;;;;;;;;;;;;5017699;28;19917;-27
2023/03/05 13:22:42;;;;;;;;;;;;;;;;;;5017307;28;20406;-29
2023/03/05 13:25:08;;;;;;;;;;;;;;;;;;5017628;28;19914;-30
2023/03/05 13:27:34;;;;;;;;;;;;;;;;;;5017334;28;19917;-25
2023/03/05 13:30:00;;;;;;;;;;;;;;;;;;5017516;28;19910;-31
2023/03/05 13:32:26;;;;;;;;;;;;;;;;;;5017175;28;20012;-32
2023/03/05 13:34:52;;;;;;;;;;;;;;;;;;5017114;28;19909;-27
2023/03/05 13:37:18;;;;;;;;;;;;;;;;;;5017022;28;19956;-29
2023/03/05 13:39:44;;;;;;;;;;;;;;;;;;5016166;28;20307;-25
2023/03/05 13:42:10;;;;;;;;;;;;;;;;;;5017012;28;19935;-25
2023/03/05 13:44:36;;;;;;;;;;;;;;;;;;5017010;28;20007;-29
2023/03/05 13:47:02;;;;;;;;;;;;;;;;;;5016958;28;19920;-25
2023/03/05 13:49:28;;;;;;;;;;;;;;;;;;5016905;28;19921;-29
2023/03/05 13:51:54;;;;;;;;;;;;;;;;;;5016986;28;19953;-31
2023/03/05 13:54:20;;;;;;;;;;;;;;;;;;5016832;28;19910;-30
2023/03/05 13:56:46;;;;;;;;;;;;;;;;;;5016772;28;20297;-27
2023/03/05 13:59:12;;;;;;;;;;;;;;;;;;5016937;28;20004;-29
2023/03/05 14:01:37;;;;;;;;;;;;;;;;;;5017362;28;19972;-28
2023/03/05 14:04:04;;;;;;;;;;;;;;;;;;5016541;28;19964;-31
2023/03/05 14:06:30;;;;;;;;;;;;;;;;;;5016434;28;19920;-31
2023/03/05 14:08:56;;;;;;;;;;;;;;;;;;5016849;28;19920;-27
2023/03/05 14:11:22;;;;;;;;;;;;;;;;;;5016770;28;19920;-28
2023/03/05 14:13:48;;;;;;;;;;;;;;;;;;5016357;28;20008;-27
2023/03/05 14:16:14;;;;;;;;;;;;;;;;;;5016448;28;19993;-28
2023/03/05 14:18:40;;;;;;;;;;;;;;;;;;5016309;28;20329;-29
2023/03/05 14:21:09;;;;;;;;;;;;;;;;;;5016271;28;20000;-25
2023/03/05 14:23:35;;;;;;;;;;;;;;;;;;5016418;28;19936;-31
2023/03/05 14:26:01;;;;;;;;;;;;;;;;;;5016209;28;19910;-29
2023/03/05 14:28:27;;;;;;;;;;;;;;;;;;5016143;28;19909;-28
2023/03/05 14:30:52;;;;;;;;;;;;;;;;;;5016134;28;19964;-27
2023/03/05 14:33:18;;;;;;;;;;;;;;;;;;5016229;28;19917;-28
2023/03/05 14:35:44;;;;;;;;;;;;;;;;;;5014979;28;19937;-30
2023/03/05 14:38:10;;;;;;;;;;;;;;;;;;5016168;28;19913;-28
2023/03/05 14:40:36;;;;;;;;;;;;;;;;;;5015890;28;20261;-24
2023/03/05 14:43:03;;;;;;;;;;;;;;;;;;5015800;28;19916;-27
2023/03/05 14:45:29;;;;;;;;;;;;;;;;;;5015608;28;19945;-28
2023/03/05 14:47:55;;;;;;;;;;;;;;;;;;5015967;28;19960;-28
2023/03/05 14:50:21;;;;;;;;;;;;;;;;;;5015741;28;19971;-28
2023/03/05 14:52:47;;;;;;;;;;;;;;;;;;5015773;28;19915;-31
2023/03/05 14:55:13;;;;;;;;;;;;;;;;;;5015694;28;19997;-30
2023/03/05 14:57:39;;;;;;;;;;;;;;;;;;5015636;28;20027;-26
2023/03/05 15:00:04;;;;;;;;;;;;;;;;;;5015596;28;19964;-30
2023/03/05 15:02:30;;;;;;;;;;;;;;;;;;5015481;28;20019;-28
2023/03/05 15:04:56;;;;;;;;;;;;;;;;;;5015505;28;19913;-30
2023/03/05 15:07:22;;;;;;;;;;;;;;;;;;5015305;28;19921;-27
2023/03/05 15:09:48;;;;;;;;;;;;;;;;;;5015445;28;19941;-28
2023/03/05 15:12:14;;;;;;;;;;;;;;;;;;5015639;28;19920;-27
2023/03/05 15:14:42;;;;;;;;;;;;;;;;;;5015347;28;19971;-27
2023/03/05 15:17:08;;;;;;;;;;;;;;;;;;5015493;28;19909;-29
2023/03/05 15:19:34;;;;;;;;;;;;;;;;;;5015312;28;20403;-28
2023/03/05 15:22:00;;;;;;;;;;;;;;;;;;5015202;28;20230;-26
2023/03/05 15:24:25;;;;;;;;;;;;;;;;;;5015214;28;19909;-30
2023/03/05 15:26:51;;;;;;;;;;;;;;;;;;5014181;28;19918;-28
2023/03/05 15:29:17;;;;;;;;;;;;;;;;;;5015384;28;20004;-27
2023/03/05 15:31:43;;;;;;;;;;;;;;;;;;5015108;28;19910;-25
2023/03/05 15:34:09;;;;;;;;;;;;;;;;;;5014974;28;19970;-26
2023/03/05 15:36:35;;;;;;;;;;;;;;;;;;5015422;28;19956;-28
2023/03/05 15:39:01;;;;;;;;;;;;;;;;;;5014900;28;19918;-29
2023/03/05 15:41:27;;;;;;;;;;;;;;;;;;5015183;28;19910;-28
2023/03/05 15:43:53;;;;;;;;;;;;;;;;;;5014876;28;19968;-30
2023/03/05 15:46:19;;;;;;;;;;;;;;;;;;5014943;28;19916;-24
2023/03/05 15:48:48;;;;;;;;;;;;;;;;;;5014885;28;19909;-33
2023/03/05 15:51:14;;;;;;;;;;;;;;;;;;5015098;28;20018;-28
2023/03/05 15:53:40;;;;;;;;;;;;;;;;;;5014738;28;19941;-25
2023/03/05 15:56:06;;;;;;;;;;;;;;;;;;5014767;28;20286;-26
2023/03/05 15:58:32;;;;;;;;;;;;;;;;;;5013890;28;19922;-27
2023/03/05 16:00:58;;;;;;;;;;;;;;;;;;5014685;28;19920;-26
2023/03/05 16:03:24;;;;;;;;;;;;;;;;;;5014640;28;19971;-25
2023/03/05 16:05:50;;;;;;;;;;;;;;;;;;5014958;28;19915;-28
2023/03/05 16:08:16;;;;;;;;;;;;;;;;;;5014572;28;20348;-25
2023/03/05 16:10:42;;;;;;;;;;;;;;;;;;5014922;28;19921;-27
2023/03/05 16:13:08;;;;;;;;;;;;;;;;;;5014571;28;19909;-28
2023/03/05 16:15:34;;;;;;;;;;;;;;;;;;5014622;28;19961;-27
2023/03/05 16:18:00;;;;;;;;;;;;;;;;;;5014534;28;19944;-29
2023/03/05 16:20:26;;;;;;;;;;;;;;;;;;5014811;28;19909;-30
2023/03/05 16:22:52;;;;;;;;;;;;;;;;;;5014467;28;19913;-30
2023/03/05 16:25:18;;;;;;;;;;;;;;;;;;5014469;28;19909;-26
2023/03/05 16:27:44;;;;;;;;;;;;;;;;;;5014502;28;19909;-29
2023/03/05 16:30:10;;;;;;;;;;;;;;;;;;5014500;28;19932;-28
2023/03/05 16:32:36;;;;;;;;;;;;;;;;;;5014609;28;20307;-26
2023/03/05 16:35:01;;;;;;;;;;;;;;;;;;5014640;28;19937;-28
2023/03/05 16:37:27;;;;;;;;;;;;;;;;;;5014345;28;20272;-25